sensor_id;sensor_type;location;lat;lon;timestamp;P1;durP1;ratioP1;P2;durP2;ratioP2
9960;SDS011;5021;51.506;11.320;2023-11-19T00:02:14;3.30;;;2.97;;
9960;SDS011;5021;51.506;11.320;2023-11-19T00:04:40;3.40;;;3.10;;
9960;SDS011;5021;51.506;11.320;2023-11-19T00:07:06;3.20;;;2.90;;
9960;SDS011;5021;51.506;11.320;2023-11-19T00:09:36;3.07;;;2.80;;
9960;SDS011;5021;51.506;11.320;2023-11-19T00:12:03;3.03;;;2.73;;
9960;SDS011;5021;51.506;11.320;2023-11-19T00:14:29;3.57;;;2.80;;
9960;SDS011;5021;51.506;11.320;2023-11-19T00:16:55;2.83;;;2.57;;
9960;SDS011;5021;51.506;11.320;2023-11-19T00:19:21;3.10;;;2.90;;
9960;SDS011;5021;51.506;11.320;2023-11-19T00:21:47;2.83;;;2.40;;
9960;SDS011;5021;51.506;11.320;2023-11-19T00:24:13;3.70;;;3.00;;
9960;SDS011;5021;51.506;11.320;2023-11-19T00:26:41;3.13;;;2.60;;
9960;SDS011;5021;51.506;11.320;2023-11-19T00:29:08;4.17;;;2.87;;
9960;SDS011;5021;51.506;11.320;2023-11-19T00:31:34;2.93;;;2.73;;
9960;SDS011;5021;51.506;11.320;2023-11-19T00:34:00;4.50;;;2.60;;
9960;SDS011;5021;51.506;11.320;2023-11-19T00:36:26;2.77;;;2.57;;
9960;SDS011;5021;51.506;11.320;2023-11-19T00:38:53;2.77;;;2.57;;
9960;SDS011;5021;51.506;11.320;2023-11-19T00:41:19;2.70;;;2.27;;
9960;SDS011;5021;51.506;11.320;2023-11-19T00:43:45;2.70;;;2.50;;
9960;SDS011;5021;51.506;11.320;2023-11-19T00:46:11;3.10;;;2.83;;
9960;SDS011;5021;51.506;11.320;2023-11-19T00:48:37;2.60;;;2.40;;
9960;SDS011;5021;51.506;11.320;2023-11-19T00:51:03;2.80;;;2.60;;
9960;SDS011;5021;51.506;11.320;2023-11-19T00:53:29;2.73;;;2.53;;
9960;SDS011;5021;51.506;11.320;2023-11-19T00:55:55;2.73;;;2.53;;
9960;SDS011;5021;51.506;11.320;2023-11-19T00:58:22;3.37;;;2.50;;
9960;SDS011;5021;51.506;11.320;2023-11-19T01:00:48;3.10;;;2.40;;
9960;SDS011;5021;51.506;11.320;2023-11-19T01:03:13;3.10;;;2.80;;
9960;SDS011;5021;51.506;11.320;2023-11-19T01:05:40;2.63;;;2.43;;
9960;SDS011;5021;51.506;11.320;2023-11-19T01:08:06;3.00;;;2.70;;
9960;SDS011;5021;51.506;11.320;2023-11-19T01:10:33;3.20;;;2.60;;
9960;SDS011;5021;51.506;11.320;2023-11-19T01:12:59;2.80;;;2.60;;
9960;SDS011;5021;51.506;11.320;2023-11-19T01:15:24;3.23;;;2.93;;
9960;SDS011;5021;51.506;11.320;2023-11-19T01:17:51;2.90;;;2.70;;
9960;SDS011;5021;51.506;11.320;2023-11-19T01:20:17;2.60;;;2.40;;
9960;SDS011;5021;51.506;11.320;2023-11-19T01:22:43;2.93;;;2.63;;
9960;SDS011;5021;51.506;11.320;2023-11-19T01:25:09;3.20;;;2.90;;
9960;SDS011;5021;51.506;11.320;2023-11-19T01:27:35;3.17;;;2.87;;
9960;SDS011;5021;51.506;11.320;2023-11-19T01:30:02;3.00;;;2.70;;
9960;SDS011;5021;51.506;11.320;2023-11-19T01:32:34;3.10;;;2.80;;
9960;SDS011;5021;51.506;11.320;2023-11-19T01:35:01;3.10;;;2.80;;
9960;SDS011;5021;51.506;11.320;2023-11-19T01:37:27;3.30;;;3.00;;
9960;SDS011;5021;51.506;11.320;2023-11-19T01:39:53;3.10;;;2.80;;
9960;SDS011;5021;51.506;11.320;2023-11-19T01:42:19;3.53;;;3.10;;
9960;SDS011;5021;51.506;11.320;2023-11-19T01:44:55;3.20;;;2.90;;
9960;SDS011;5021;51.506;11.320;2023-11-19T01:47:22;3.20;;;2.87;;
9960;SDS011;5021;51.506;11.320;2023-11-19T01:49:49;2.90;;;2.60;;
9960;SDS011;5021;51.506;11.320;2023-11-19T01:52:15;3.77;;;3.07;;
9960;SDS011;5021;51.506;11.320;2023-11-19T01:54:41;3.30;;;2.73;;
9960;SDS011;5021;51.506;11.320;2023-11-19T01:57:07;2.67;;;2.47;;
9960;SDS011;5021;51.506;11.320;2023-11-19T01:59:34;2.50;;;2.30;;
9960;SDS011;5021;51.506;11.320;2023-11-19T02:02:00;2.30;;;2.10;;
9960;SDS011;5021;51.506;11.320;2023-11-19T02:04:26;3.13;;;2.30;;
9960;SDS011;5021;51.506;11.320;2023-11-19T02:06:53;2.30;;;2.10;;
9960;SDS011;5021;51.506;11.320;2023-11-19T02:09:22;5.23;;;2.07;;
9960;SDS011;5021;51.506;11.320;2023-11-19T02:11:48;2.90;;;2.20;;
9960;SDS011;5021;51.506;11.320;2023-11-19T02:14:16;3.00;;;2.40;;
9960;SDS011;5021;51.506;11.320;2023-11-19T02:16:42;2.90;;;2.50;;
9960;SDS011;5021;51.506;11.320;2023-11-19T02:19:08;2.53;;;2.33;;
9960;SDS011;5021;51.506;11.320;2023-11-19T02:21:35;2.90;;;2.47;;
9960;SDS011;5021;51.506;11.320;2023-11-19T02:24:03;2.33;;;2.13;;
9960;SDS011;5021;51.506;11.320;2023-11-19T02:26:52;2.37;;;2.17;;
9960;SDS011;5021;51.506;11.320;2023-11-19T02:29:21;3.00;;;2.77;;
9960;SDS011;5021;51.506;11.320;2023-11-19T02:31:47;2.87;;;2.60;;
9960;SDS011;5021;51.506;11.320;2023-11-19T02:34:13;2.90;;;2.60;;
9960;SDS011;5021;51.506;11.320;2023-11-19T02:36:39;2.50;;;2.30;;
9960;SDS011;5021;51.506;11.320;2023-11-19T02:39:06;2.60;;;2.40;;
9960;SDS011;5021;51.506;11.320;2023-11-19T02:41:35;3.27;;;2.57;;
9960;SDS011;5021;51.506;11.320;2023-11-19T02:44:04;2.73;;;2.53;;
9960;SDS011;5021;51.506;11.320;2023-11-19T02:46:30;2.97;;;2.77;;
9960;SDS011;5021;51.506;11.320;2023-11-19T02:48:56;2.60;;;2.40;;
9960;SDS011;5021;51.506;11.320;2023-11-19T02:51:22;3.10;;;2.40;;
9960;SDS011;5021;51.506;11.320;2023-11-19T02:53:48;2.73;;;2.43;;
9960;SDS011;5021;51.506;11.320;2023-11-19T02:56:14;2.70;;;2.50;;
9960;SDS011;5021;51.506;11.320;2023-11-19T02:58:45;3.40;;;2.70;;
9960;SDS011;5021;51.506;11.320;2023-11-19T03:01:11;2.90;;;2.03;;
9960;SDS011;5021;51.506;11.320;2023-11-19T03:03:48;2.67;;;2.33;;
9960;SDS011;5021;51.506;11.320;2023-11-19T03:06:19;2.37;;;2.17;;
9960;SDS011;5021;51.506;11.320;2023-11-19T03:08:46;2.47;;;2.27;;
9960;SDS011;5021;51.506;11.320;2023-11-19T03:11:13;2.70;;;2.50;;
9960;SDS011;5021;51.506;11.320;2023-11-19T03:13:39;2.93;;;2.40;;
9960;SDS011;5021;51.506;11.320;2023-11-19T03:16:05;2.63;;;2.40;;
9960;SDS011;5021;51.506;11.320;2023-11-19T03:18:31;3.43;;;2.37;;
9960;SDS011;5021;51.506;11.320;2023-11-19T03:20:57;3.77;;;2.53;;
9960;SDS011;5021;51.506;11.320;2023-11-19T03:23:24;2.80;;;2.60;;
9960;SDS011;5021;51.506;11.320;2023-11-19T03:25:52;2.80;;;2.53;;
9960;SDS011;5021;51.506;11.320;2023-11-19T03:28:18;2.70;;;2.50;;
9960;SDS011;5021;51.506;11.320;2023-11-19T03:30:44;3.80;;;2.70;;
9960;SDS011;5021;51.506;11.320;2023-11-19T03:33:10;3.40;;;3.10;;
9960;SDS011;5021;51.506;11.320;2023-11-19T03:35:36;2.90;;;2.70;;
9960;SDS011;5021;51.506;11.320;2023-11-19T03:38:02;3.00;;;2.70;;
9960;SDS011;5021;51.506;11.320;2023-11-19T03:40:28;2.90;;;2.70;;
9960;SDS011;5021;51.506;11.320;2023-11-19T03:42:57;2.80;;;2.60;;
9960;SDS011;5021;51.506;11.320;2023-11-19T03:45:24;3.43;;;3.13;;
9960;SDS011;5021;51.506;11.320;2023-11-19T03:47:50;3.03;;;2.73;;
9960;SDS011;5021;51.506;11.320;2023-11-19T03:50:16;3.30;;;3.00;;
9960;SDS011;5021;51.506;11.320;2023-11-19T03:52:43;3.20;;;2.90;;
9960;SDS011;5021;51.506;11.320;2023-11-19T03:55:09;3.17;;;2.87;;
9960;SDS011;5021;51.506;11.320;2023-11-19T03:57:35;3.40;;;3.07;;
9960;SDS011;5021;51.506;11.320;2023-11-19T04:00:01;3.60;;;3.30;;
9960;SDS011;5021;51.506;11.320;2023-11-19T04:02:34;3.50;;;3.20;;
9960;SDS011;5021;51.506;11.320;2023-11-19T04:05:00;3.50;;;3.20;;
9960;SDS011;5021;51.506;11.320;2023-11-19T04:07:26;3.57;;;3.27;;
9960;SDS011;5021;51.506;11.320;2023-11-19T04:09:52;3.50;;;3.20;;
9960;SDS011;5021;51.506;11.320;2023-11-19T04:12:18;3.50;;;3.20;;
9960;SDS011;5021;51.506;11.320;2023-11-19T04:14:43;3.43;;;3.13;;
9960;SDS011;5021;51.506;11.320;2023-11-19T04:17:09;4.20;;;3.80;;
9960;SDS011;5021;51.506;11.320;2023-11-19T04:19:35;3.80;;;3.40;;
9960;SDS011;5021;51.506;11.320;2023-11-19T04:22:01;5.57;;;3.33;;
9960;SDS011;5021;51.506;11.320;2023-11-19T04:24:27;3.40;;;3.10;;
9960;SDS011;5021;51.506;11.320;2023-11-19T04:26:53;3.60;;;3.30;;
9960;SDS011;5021;51.506;11.320;2023-11-19T04:29:19;3.50;;;3.20;;
9960;SDS011;5021;51.506;11.320;2023-11-19T04:31:45;3.50;;;3.20;;
9960;SDS011;5021;51.506;11.320;2023-11-19T04:34:11;3.43;;;3.13;;
9960;SDS011;5021;51.506;11.320;2023-11-19T04:36:37;3.80;;;3.43;;
9960;SDS011;5021;51.506;11.320;2023-11-19T04:39:04;3.97;;;3.33;;
9960;SDS011;5021;51.506;11.320;2023-11-19T04:41:34;3.70;;;3.40;;
9960;SDS011;5021;51.506;11.320;2023-11-19T04:44:00;3.57;;;3.27;;
9960;SDS011;5021;51.506;11.320;2023-11-19T04:46:26;3.30;;;3.00;;
9960;SDS011;5021;51.506;11.320;2023-11-19T04:48:52;3.90;;;3.40;;
9960;SDS011;5021;51.506;11.320;2023-11-19T04:51:18;4.10;;;3.47;;
9960;SDS011;5021;51.506;11.320;2023-11-19T04:53:44;3.13;;;2.83;;
9960;SDS011;5021;51.506;11.320;2023-11-19T04:56:10;3.67;;;3.37;;
9960;SDS011;5021;51.506;11.320;2023-11-19T04:58:37;3.20;;;2.90;;
9960;SDS011;5021;51.506;11.320;2023-11-19T05:01:03;3.17;;;2.87;;
9960;SDS011;5021;51.506;11.320;2023-11-19T05:03:30;2.80;;;2.60;;
9960;SDS011;5021;51.506;11.320;2023-11-19T05:05:56;3.07;;;2.70;;
9960;SDS011;5021;51.506;11.320;2023-11-19T05:08:22;2.67;;;2.27;;
9960;SDS011;5021;51.506;11.320;2023-11-19T05:10:48;4.30;;;2.60;;
9960;SDS011;5021;51.506;11.320;2023-11-19T05:13:14;2.80;;;2.47;;
9960;SDS011;5021;51.506;11.320;2023-11-19T05:15:40;2.70;;;2.50;;
9960;SDS011;5021;51.506;11.320;2023-11-19T05:18:06;2.40;;;2.20;;
9960;SDS011;5021;51.506;11.320;2023-11-19T05:20:32;3.57;;;2.27;;
9960;SDS011;5021;51.506;11.320;2023-11-19T05:22:58;2.73;;;2.53;;
9960;SDS011;5021;51.506;11.320;2023-11-19T05:25:25;2.70;;;2.50;;
9960;SDS011;5021;51.506;11.320;2023-11-19T05:27:51;4.73;;;2.90;;
9960;SDS011;5021;51.506;11.320;2023-11-19T05:30:17;3.30;;;2.63;;
9960;SDS011;5021;51.506;11.320;2023-11-19T05:32:44;2.60;;;2.40;;
9960;SDS011;5021;51.506;11.320;2023-11-19T05:35:10;4.47;;;2.23;;
9960;SDS011;5021;51.506;11.320;2023-11-19T05:37:36;3.20;;;2.43;;
9960;SDS011;5021;51.506;11.320;2023-11-19T05:40:03;2.70;;;2.50;;
9960;SDS011;5021;51.506;11.320;2023-11-19T05:42:32;2.40;;;2.20;;
9960;SDS011;5021;51.506;11.320;2023-11-19T05:44:59;2.60;;;2.17;;
9960;SDS011;5021;51.506;11.320;2023-11-19T05:47:24;2.63;;;2.10;;
9960;SDS011;5021;51.506;11.320;2023-11-19T05:49:50;3.07;;;2.10;;
9960;SDS011;5021;51.506;11.320;2023-11-19T05:52:16;2.47;;;2.00;;
9960;SDS011;5021;51.506;11.320;2023-11-19T05:54:42;2.43;;;2.20;;
9960;SDS011;5021;51.506;11.320;2023-11-19T05:57:08;1.90;;;1.80;;
9960;SDS011;5021;51.506;11.320;2023-11-19T05:59:34;2.10;;;1.90;;
9960;SDS011;5021;51.506;11.320;2023-11-19T06:02:01;2.70;;;2.10;;
9960;SDS011;5021;51.506;11.320;2023-11-19T06:04:27;1.90;;;1.80;;
9960;SDS011;5021;51.506;11.320;2023-11-19T06:06:53;2.10;;;1.90;;
9960;SDS011;5021;51.506;11.320;2023-11-19T06:09:20;1.57;;;1.47;;
9960;SDS011;5021;51.506;11.320;2023-11-19T06:11:46;2.00;;;1.80;;
9960;SDS011;5021;51.506;11.320;2023-11-19T06:14:12;3.00;;;2.00;;
9960;SDS011;5021;51.506;11.320;2023-11-19T06:16:38;1.73;;;1.63;;
9960;SDS011;5021;51.506;11.320;2023-11-19T06:19:05;1.60;;;1.50;;
9960;SDS011;5021;51.506;11.320;2023-11-19T06:21:30;1.53;;;1.43;;
9960;SDS011;5021;51.506;11.320;2023-11-19T06:23:56;1.70;;;1.60;;
9960;SDS011;5021;51.506;11.320;2023-11-19T06:26:24;1.40;;;1.30;;
9960;SDS011;5021;51.506;11.320;2023-11-19T06:28:50;2.43;;;1.60;;
9960;SDS011;5021;51.506;11.320;2023-11-19T06:31:16;1.83;;;1.73;;
9960;SDS011;5021;51.506;11.320;2023-11-19T06:33:42;1.80;;;1.70;;
9960;SDS011;5021;51.506;11.320;2023-11-19T06:36:08;1.80;;;1.70;;
9960;SDS011;5021;51.506;11.320;2023-11-19T06:38:34;1.57;;;1.47;;
9960;SDS011;5021;51.506;11.320;2023-11-19T06:41:00;1.97;;;1.70;;
9960;SDS011;5021;51.506;11.320;2023-11-19T06:43:26;1.70;;;1.60;;
9960;SDS011;5021;51.506;11.320;2023-11-19T06:45:53;1.83;;;1.70;;
9960;SDS011;5021;51.506;11.320;2023-11-19T06:48:19;1.83;;;1.73;;
9960;SDS011;5021;51.506;11.320;2023-11-19T06:50:45;1.70;;;1.60;;
9960;SDS011;5021;51.506;11.320;2023-11-19T06:53:11;1.70;;;1.60;;
9960;SDS011;5021;51.506;11.320;2023-11-19T06:55:37;1.87;;;1.77;;
9960;SDS011;5021;51.506;11.320;2023-11-19T06:58:03;2.93;;;2.73;;
9960;SDS011;5021;51.506;11.320;2023-11-19T07:00:29;3.03;;;2.13;;
9960;SDS011;5021;51.506;11.320;2023-11-19T07:02:57;2.03;;;1.93;;
9960;SDS011;5021;51.506;11.320;2023-11-19T07:05:23;2.50;;;2.00;;
9960;SDS011;5021;51.506;11.320;2023-11-19T07:07:49;3.40;;;2.10;;
9960;SDS011;5021;51.506;11.320;2023-11-19T07:10:15;2.30;;;2.10;;
9960;SDS011;5021;51.506;11.320;2023-11-19T07:12:41;2.83;;;1.80;;
9960;SDS011;5021;51.506;11.320;2023-11-19T07:15:07;2.00;;;1.90;;
9960;SDS011;5021;51.506;11.320;2023-11-19T07:17:38;1.87;;;1.77;;
9960;SDS011;5021;51.506;11.320;2023-11-19T07:20:05;3.07;;;2.77;;
9960;SDS011;5021;51.506;11.320;2023-11-19T07:22:31;2.67;;;2.47;;
9960;SDS011;5021;51.506;11.320;2023-11-19T07:24:57;2.60;;;2.33;;
9960;SDS011;5021;51.506;11.320;2023-11-19T07:27:23;3.50;;;2.00;;
9960;SDS011;5021;51.506;11.320;2023-11-19T07:29:49;1.80;;;1.70;;
9960;SDS011;5021;51.506;11.320;2023-11-19T07:32:16;2.23;;;2.03;;
9960;SDS011;5021;51.506;11.320;2023-11-19T07:34:42;2.00;;;1.80;;
9960;SDS011;5021;51.506;11.320;2023-11-19T07:37:08;2.63;;;1.90;;
9960;SDS011;5021;51.506;11.320;2023-11-19T07:39:34;4.67;;;2.40;;
9960;SDS011;5021;51.506;11.320;2023-11-19T07:42:00;2.90;;;2.10;;
9960;SDS011;5021;51.506;11.320;2023-11-19T07:44:26;2.43;;;2.23;;
9960;SDS011;5021;51.506;11.320;2023-11-19T07:46:52;2.50;;;2.30;;
9960;SDS011;5021;51.506;11.320;2023-11-19T07:49:18;2.30;;;2.10;;
9960;SDS011;5021;51.506;11.320;2023-11-19T07:51:44;2.93;;;2.40;;
9960;SDS011;5021;51.506;11.320;2023-11-19T07:54:10;2.67;;;2.47;;
9960;SDS011;5021;51.506;11.320;2023-11-19T07:56:36;4.00;;;3.70;;
9960;SDS011;5021;51.506;11.320;2023-11-19T07:59:02;4.40;;;4.00;;
9960;SDS011;5021;51.506;11.320;2023-11-19T08:01:28;4.40;;;4.00;;
9960;SDS011;5021;51.506;11.320;2023-11-19T08:03:54;4.30;;;3.63;;
9960;SDS011;5021;51.506;11.320;2023-11-19T08:06:20;3.37;;;3.07;;
9960;SDS011;5021;51.506;11.320;2023-11-19T08:08:47;4.20;;;3.30;;
9960;SDS011;5021;51.506;11.320;2023-11-19T08:11:13;3.30;;;3.00;;
9960;SDS011;5021;51.506;11.320;2023-11-19T08:13:40;3.10;;;2.80;;
9960;SDS011;5021;51.506;11.320;2023-11-19T08:16:06;2.70;;;2.50;;
9960;SDS011;5021;51.506;11.320;2023-11-19T08:18:33;2.50;;;2.30;;
9960;SDS011;5021;51.506;11.320;2023-11-19T08:20:58;2.53;;;2.33;;
9960;SDS011;5021;51.506;11.320;2023-11-19T08:23:25;3.07;;;2.60;;
9960;SDS011;5021;51.506;11.320;2023-11-19T08:25:53;3.00;;;2.70;;
9960;SDS011;5021;51.506;11.320;2023-11-19T08:28:19;3.03;;;2.60;;
9960;SDS011;5021;51.506;11.320;2023-11-19T08:30:45;2.90;;;2.60;;
9960;SDS011;5021;51.506;11.320;2023-11-19T08:33:11;3.33;;;2.70;;
9960;SDS011;5021;51.506;11.320;2023-11-19T08:35:37;12.30;;;10.03;;
9960;SDS011;5021;51.506;11.320;2023-11-19T08:38:03;5.00;;;4.20;;
9960;SDS011;5021;51.506;11.320;2023-11-19T08:40:29;4.53;;;4.13;;
9960;SDS011;5021;51.506;11.320;2023-11-19T08:42:55;9.17;;;6.17;;
9960;SDS011;5021;51.506;11.320;2023-11-19T08:45:21;10.37;;;8.13;;
9960;SDS011;5021;51.506;11.320;2023-11-19T08:47:47;29.63;;;20.63;;
9960;SDS011;5021;51.506;11.320;2023-11-19T08:50:13;23.20;;;14.77;;
9960;SDS011;5021;51.506;11.320;2023-11-19T08:52:39;13.50;;;10.30;;
9960;SDS011;5021;51.506;11.320;2023-11-19T08:55:05;15.57;;;12.57;;
9960;SDS011;5021;51.506;11.320;2023-11-19T08:57:31;10.53;;;7.97;;
9960;SDS011;5021;51.506;11.320;2023-11-19T08:59:58;9.77;;;8.27;;
9960;SDS011;5021;51.506;11.320;2023-11-19T09:02:24;9.80;;;7.67;;
9960;SDS011;5021;51.506;11.320;2023-11-19T09:04:50;30.47;;;22.07;;
9960;SDS011;5021;51.506;11.320;2023-11-19T09:07:16;15.17;;;13.20;;
9960;SDS011;5021;51.506;11.320;2023-11-19T09:09:42;17.90;;;13.83;;
9960;SDS011;5021;51.506;11.320;2023-11-19T09:12:08;17.83;;;14.43;;
9960;SDS011;5021;51.506;11.320;2023-11-19T09:14:34;18.17;;;13.90;;
9960;SDS011;5021;51.506;11.320;2023-11-19T09:17:00;14.20;;;11.87;;
9960;SDS011;5021;51.506;11.320;2023-11-19T09:19:26;13.37;;;11.10;;
9960;SDS011;5021;51.506;11.320;2023-11-19T09:21:52;10.27;;;7.53;;
9960;SDS011;5021;51.506;11.320;2023-11-19T09:24:18;7.10;;;6.03;;
9960;SDS011;5021;51.506;11.320;2023-11-19T09:26:44;6.70;;;5.93;;
9960;SDS011;5021;51.506;11.320;2023-11-19T09:29:10;6.37;;;5.77;;
9960;SDS011;5021;51.506;11.320;2023-11-19T09:31:39;5.47;;;4.60;;
9960;SDS011;5021;51.506;11.320;2023-11-19T09:34:05;7.33;;;5.63;;
9960;SDS011;5021;51.506;11.320;2023-11-19T09:36:31;12.73;;;11.40;;
9960;SDS011;5021;51.506;11.320;2023-11-19T09:38:57;7.57;;;6.77;;
9960;SDS011;5021;51.506;11.320;2023-11-19T09:41:25;5.67;;;4.90;;
9960;SDS011;5021;51.506;11.320;2023-11-19T09:43:53;10.80;;;7.60;;
9960;SDS011;5021;51.506;11.320;2023-11-19T09:46:19;7.40;;;6.70;;
9960;SDS011;5021;51.506;11.320;2023-11-19T09:48:45;10.97;;;9.63;;
9960;SDS011;5021;51.506;11.320;2023-11-19T09:51:13;11.73;;;10.03;;
9960;SDS011;5021;51.506;11.320;2023-11-19T09:53:39;10.80;;;8.97;;
9960;SDS011;5021;51.506;11.320;2023-11-19T09:56:05;9.33;;;8.43;;
9960;SDS011;5021;51.506;11.320;2023-11-19T09:58:33;8.90;;;8.07;;
9960;SDS011;5021;51.506;11.320;2023-11-19T10:00:59;8.47;;;7.20;;
9960;SDS011;5021;51.506;11.320;2023-11-19T10:03:35;10.13;;;6.83;;
9960;SDS011;5021;51.506;11.320;2023-11-19T10:06:06;9.80;;;6.00;;
9960;SDS011;5021;51.506;11.320;2023-11-19T10:08:32;8.40;;;5.10;;
9960;SDS011;5021;51.506;11.320;2023-11-19T10:10:58;7.00;;;4.03;;
9960;SDS011;5021;51.506;11.320;2023-11-19T10:13:28;5.87;;;3.77;;
9960;SDS011;5021;51.506;11.320;2023-11-19T10:15:55;7.30;;;3.63;;
9960;SDS011;5021;51.506;11.320;2023-11-19T10:18:25;7.60;;;2.67;;
9960;SDS011;5021;51.506;11.320;2023-11-19T10:20:52;6.00;;;3.27;;
9960;SDS011;5021;51.506;11.320;2023-11-19T10:23:18;6.10;;;3.10;;
9960;SDS011;5021;51.506;11.320;2023-11-19T10:25:44;7.27;;;2.70;;
9960;SDS011;5021;51.506;11.320;2023-11-19T10:28:10;6.50;;;2.90;;
9960;SDS011;5021;51.506;11.320;2023-11-19T10:30:36;6.77;;;3.63;;
9960;SDS011;5021;51.506;11.320;2023-11-19T10:35:29;7.60;;;3.20;;
9960;SDS011;5021;51.506;11.320;2023-11-19T10:37:55;9.83;;;3.47;;
9960;SDS011;5021;51.506;11.320;2023-11-19T10:40:21;9.20;;;3.33;;
9960;SDS011;5021;51.506;11.320;2023-11-19T10:42:47;9.60;;;3.83;;
9960;SDS011;5021;51.506;11.320;2023-11-19T10:45:22;15.67;;;5.87;;
9960;SDS011;5021;51.506;11.320;2023-11-19T10:47:49;13.40;;;4.50;;
9960;SDS011;5021;51.506;11.320;2023-11-19T10:50:15;12.37;;;3.97;;
9960;SDS011;5021;51.506;11.320;2023-11-19T10:52:41;11.60;;;4.77;;
9960;SDS011;5021;51.506;11.320;2023-11-19T10:55:08;12.23;;;4.10;;
9960;SDS011;5021;51.506;11.320;2023-11-19T10:57:39;9.70;;;3.50;;
9960;SDS011;5021;51.506;11.320;2023-11-19T11:00:09;9.87;;;3.47;;
9960;SDS011;5021;51.506;11.320;2023-11-19T11:02:39;10.27;;;3.60;;
9960;SDS011;5021;51.506;11.320;2023-11-19T11:05:07;9.20;;;3.27;;
9960;SDS011;5021;51.506;11.320;2023-11-19T11:07:33;9.40;;;3.50;;
9960;SDS011;5021;51.506;11.320;2023-11-19T11:09:59;10.60;;;3.67;;
9960;SDS011;5021;51.506;11.320;2023-11-19T11:12:28;8.03;;;3.47;;
9960;SDS011;5021;51.506;11.320;2023-11-19T11:14:55;10.30;;;3.53;;
9960;SDS011;5021;51.506;11.320;2023-11-19T11:17:22;14.23;;;3.43;;
9960;SDS011;5021;51.506;11.320;2023-11-19T11:19:50;14.10;;;3.67;;
9960;SDS011;5021;51.506;11.320;2023-11-19T11:22:16;11.90;;;3.93;;
9960;SDS011;5021;51.506;11.320;2023-11-19T11:32:10;10.57;;;3.40;;
9960;SDS011;5021;51.506;11.320;2023-11-19T11:39:33;13.67;;;4.00;;
9960;SDS011;5021;51.506;11.320;2023-11-19T11:50:13;8.70;;;3.00;;
9960;SDS011;5021;51.506;11.320;2023-11-19T11:57:50;11.23;;;3.77;;
9960;SDS011;5021;51.506;11.320;2023-11-19T12:00:22;14.87;;;4.10;;
9960;SDS011;5021;51.506;11.320;2023-11-19T12:02:52;9.23;;;3.80;;
9960;SDS011;5021;51.506;11.320;2023-11-19T12:05:18;8.47;;;3.83;;
9960;SDS011;5021;51.506;11.320;2023-11-19T12:07:54;11.67;;;4.37;;
9960;SDS011;5021;51.506;11.320;2023-11-19T12:10:20;11.73;;;3.97;;
9960;SDS011;5021;51.506;11.320;2023-11-19T12:12:47;12.00;;;3.93;;
9960;SDS011;5021;51.506;11.320;2023-11-19T12:15:13;13.13;;;3.70;;
9960;SDS011;5021;51.506;11.320;2023-11-19T12:17:43;12.40;;;4.50;;
9960;SDS011;5021;51.506;11.320;2023-11-19T12:20:14;11.07;;;3.90;;
9960;SDS011;5021;51.506;11.320;2023-11-19T12:22:41;11.00;;;3.40;;
9960;SDS011;5021;51.506;11.320;2023-11-19T12:25:08;10.83;;;3.77;;
9960;SDS011;5021;51.506;11.320;2023-11-19T12:27:35;10.63;;;3.37;;
9960;SDS011;5021;51.506;11.320;2023-11-19T12:30:01;10.67;;;3.83;;
9960;SDS011;5021;51.506;11.320;2023-11-19T12:32:37;8.77;;;3.50;;
9960;SDS011;5021;51.506;11.320;2023-11-19T12:35:03;11.77;;;3.13;;
9960;SDS011;5021;51.506;11.320;2023-11-19T12:37:29;9.57;;;3.30;;
9960;SDS011;5021;51.506;11.320;2023-11-19T12:39:56;8.40;;;3.60;;
9960;SDS011;5021;51.506;11.320;2023-11-19T12:42:34;12.43;;;3.87;;
9960;SDS011;5021;51.506;11.320;2023-11-19T12:45:01;12.03;;;3.43;;
9960;SDS011;5021;51.506;11.320;2023-11-19T12:47:27;7.80;;;3.40;;
9960;SDS011;5021;51.506;11.320;2023-11-19T12:49:56;12.73;;;3.53;;
9960;SDS011;5021;51.506;11.320;2023-11-19T12:52:22;12.47;;;4.20;;
9960;SDS011;5021;51.506;11.320;2023-11-19T12:54:48;15.73;;;3.90;;
9960;SDS011;5021;51.506;11.320;2023-11-19T12:57:14;10.97;;;4.27;;
9960;SDS011;5021;51.506;11.320;2023-11-19T12:59:41;15.77;;;3.80;;
9960;SDS011;5021;51.506;11.320;2023-11-19T13:02:08;13.07;;;3.67;;
9960;SDS011;5021;51.506;11.320;2023-11-19T13:04:34;14.60;;;4.40;;
9960;SDS011;5021;51.506;11.320;2023-11-19T13:07:00;13.07;;;4.00;;
9960;SDS011;5021;51.506;11.320;2023-11-19T13:09:29;12.43;;;3.73;;
9960;SDS011;5021;51.506;11.320;2023-11-19T13:11:55;10.20;;;3.90;;
9960;SDS011;5021;51.506;11.320;2023-11-19T13:14:21;12.87;;;3.80;;
9960;SDS011;5021;51.506;11.320;2023-11-19T13:16:48;15.57;;;4.30;;
9960;SDS011;5021;51.506;11.320;2023-11-19T13:19:14;15.17;;;4.70;;
9960;SDS011;5021;51.506;11.320;2023-11-19T13:21:41;12.13;;;4.23;;
9960;SDS011;5021;51.506;11.320;2023-11-19T13:24:07;13.67;;;3.77;;
9960;SDS011;5021;51.506;11.320;2023-11-19T13:26:33;16.63;;;4.40;;
9960;SDS011;5021;51.506;11.320;2023-11-19T13:28:59;11.93;;;4.07;;
9960;SDS011;5021;51.506;11.320;2023-11-19T13:31:26;11.70;;;3.83;;
9960;SDS011;5021;51.506;11.320;2023-11-19T13:33:52;14.30;;;3.30;;
9960;SDS011;5021;51.506;11.320;2023-11-19T13:36:17;12.87;;;3.77;;
9960;SDS011;5021;51.506;11.320;2023-11-19T13:38:44;13.63;;;4.70;;
9960;SDS011;5021;51.506;11.320;2023-11-19T13:41:11;9.40;;;3.10;;
9960;SDS011;5021;51.506;11.320;2023-11-19T13:43:38;10.33;;;3.47;;
9960;SDS011;5021;51.506;11.320;2023-11-19T13:46:04;12.10;;;3.47;;
9960;SDS011;5021;51.506;11.320;2023-11-19T13:48:30;13.07;;;4.37;;
9960;SDS011;5021;51.506;11.320;2023-11-19T13:50:57;11.53;;;3.50;;
9960;SDS011;5021;51.506;11.320;2023-11-19T13:53:23;11.80;;;3.93;;
9960;SDS011;5021;51.506;11.320;2023-11-19T13:55:49;9.00;;;3.50;;
9960;SDS011;5021;51.506;11.320;2023-11-19T13:58:15;10.63;;;3.30;;
9960;SDS011;5021;51.506;11.320;2023-11-19T14:00:41;10.23;;;3.53;;
9960;SDS011;5021;51.506;11.320;2023-11-19T14:03:08;13.93;;;3.90;;
9960;SDS011;5021;51.506;11.320;2023-11-19T14:05:37;10.33;;;3.67;;
9960;SDS011;5021;51.506;11.320;2023-11-19T14:08:04;12.10;;;4.23;;
9960;SDS011;5021;51.506;11.320;2023-11-19T14:10:36;10.63;;;2.90;;
9960;SDS011;5021;51.506;11.320;2023-11-19T14:13:04;9.77;;;3.40;;
9960;SDS011;5021;51.506;11.320;2023-11-19T14:15:30;12.67;;;3.73;;
9960;SDS011;5021;51.506;11.320;2023-11-19T14:17:55;14.83;;;4.20;;
9960;SDS011;5021;51.506;11.320;2023-11-19T14:20:21;11.17;;;3.30;;
9960;SDS011;5021;51.506;11.320;2023-11-19T14:22:47;11.13;;;3.77;;
9960;SDS011;5021;51.506;11.320;2023-11-19T14:25:14;12.63;;;3.70;;
9960;SDS011;5021;51.506;11.320;2023-11-19T14:27:40;11.63;;;3.63;;
9960;SDS011;5021;51.506;11.320;2023-11-19T14:30:07;10.70;;;3.93;;
9960;SDS011;5021;51.506;11.320;2023-11-19T14:32:35;11.47;;;4.13;;
9960;SDS011;5021;51.506;11.320;2023-11-19T14:35:02;18.13;;;4.37;;
9960;SDS011;5021;51.506;11.320;2023-11-19T14:37:28;10.57;;;3.30;;
9960;SDS011;5021;51.506;11.320;2023-11-19T14:39:56;8.03;;;3.20;;
9960;SDS011;5021;51.506;11.320;2023-11-19T14:42:22;11.63;;;3.80;;
9960;SDS011;5021;51.506;11.320;2023-11-19T14:44:50;13.37;;;3.73;;
9960;SDS011;5021;51.506;11.320;2023-11-19T14:47:17;8.33;;;2.90;;
9960;SDS011;5021;51.506;11.320;2023-11-19T14:49:43;9.77;;;3.50;;
9960;SDS011;5021;51.506;11.320;2023-11-19T14:52:09;13.53;;;3.80;;
9960;SDS011;5021;51.506;11.320;2023-11-19T14:54:36;15.10;;;3.47;;
9960;SDS011;5021;51.506;11.320;2023-11-19T14:57:02;14.17;;;4.10;;
9960;SDS011;5021;51.506;11.320;2023-11-19T14:59:28;12.33;;;3.70;;
9960;SDS011;5021;51.506;11.320;2023-11-19T15:02:03;10.93;;;3.63;;
9960;SDS011;5021;51.506;11.320;2023-11-19T15:04:29;10.33;;;3.67;;
9960;SDS011;5021;51.506;11.320;2023-11-19T15:06:58;10.53;;;3.83;;
9960;SDS011;5021;51.506;11.320;2023-11-19T15:09:25;8.37;;;3.57;;
9960;SDS011;5021;51.506;11.320;2023-11-19T15:11:54;9.87;;;3.40;;
9960;SDS011;5021;51.506;11.320;2023-11-19T15:14:20;9.50;;;3.70;;
9960;SDS011;5021;51.506;11.320;2023-11-19T15:16:46;10.10;;;3.77;;
9960;SDS011;5021;51.506;11.320;2023-11-19T15:19:14;12.40;;;3.90;;
9960;SDS011;5021;51.506;11.320;2023-11-19T15:21:43;12.83;;;4.13;;
9960;SDS011;5021;51.506;11.320;2023-11-19T15:24:09;11.13;;;3.90;;